sensor_id;sensor_type;location;lat;lon;timestamp;temperature;humidity
7028;DHT22;3555;53.248;10.336;2023-07-09T00:00:54;21.30;1.00
7028;DHT22;3555;53.248;10.336;2023-07-09T00:03:22;21.30;1.00
7028;DHT22;3555;53.248;10.336;2023-07-09T00:05:49;21.30;1.00
7028;DHT22;3555;53.248;10.336;2023-07-09T00:08:25;21.40;1.00
7028;DHT22;3555;53.248;10.336;2023-07-09T00:10:53;21.40;1.00
7028;DHT22;3555;53.248;10.336;2023-07-09T00:13:21;21.40;1.00
7028;DHT22;3555;53.248;10.336;2023-07-09T00:15:49;21.60;1.00
7028;DHT22;3555;53.248;10.336;2023-07-09T00:18:16;21.60;1.00
7028;DHT22;3555;53.248;10.336;2023-07-09T00:20:43;21.60;1.00
7028;DHT22;3555;53.248;10.336;2023-07-09T00:23:13;21.50;1.00
7028;DHT22;3555;53.248;10.336;2023-07-09T00:25:42;21.40;1.00
7028;DHT22;3555;53.248;10.336;2023-07-09T00:28:13;21.40;1.00
7028;DHT22;3555;53.248;10.336;2023-07-09T00:30:42;21.40;1.00
7028;DHT22;3555;53.248;10.336;2023-07-09T00:33:11;21.30;26.00
7028;DHT22;3555;53.248;10.336;2023-07-09T00:35:40;21.10;99.90
7028;DHT22;3555;53.248;10.336;2023-07-09T00:38:13;21.10;99.90
7028;DHT22;3555;53.248;10.336;2023-07-09T00:40:46;21.00;99.90
7028;DHT22;3555;53.248;10.336;2023-07-09T00:43:16;21.00;99.90
7028;DHT22;3555;53.248;10.336;2023-07-09T00:45:44;21.00;99.90
7028;DHT22;3555;53.248;10.336;2023-07-09T00:48:14;21.00;99.90
7028;DHT22;3555;53.248;10.336;2023-07-09T00:50:46;21.00;99.90
7028;DHT22;3555;53.248;10.336;2023-07-09T00:53:20;20.90;99.90
7028;DHT22;3555;53.248;10.336;2023-07-09T00:55:52;20.80;1.00
7028;DHT22;3555;53.248;10.336;2023-07-09T00:58:22;20.70;1.00
7028;DHT22;3555;53.248;10.336;2023-07-09T01:00:56;20.70;1.00
7028;DHT22;3555;53.248;10.336;2023-07-09T01:03:32;20.80;1.00
7028;DHT22;3555;53.248;10.336;2023-07-09T01:06:01;20.70;1.00
7028;DHT22;3555;53.248;10.336;2023-07-09T01:08:31;20.70;1.00
7028;DHT22;3555;53.248;10.336;2023-07-09T01:10:58;20.70;1.00
7028;DHT22;3555;53.248;10.336;2023-07-09T01:13:26;20.70;1.00
7028;DHT22;3555;53.248;10.336;2023-07-09T01:15:55;20.70;1.00
7028;DHT22;3555;53.248;10.336;2023-07-09T01:18:22;20.70;1.00
7028;DHT22;3555;53.248;10.336;2023-07-09T01:20:51;20.70;1.00
7028;DHT22;3555;53.248;10.336;2023-07-09T01:23:20;20.60;1.00
7028;DHT22;3555;53.248;10.336;2023-07-09T01:25:50;20.70;1.00
7028;DHT22;3555;53.248;10.336;2023-07-09T01:28:18;20.90;1.00
7028;DHT22;3555;53.248;10.336;2023-07-09T01:30:46;20.90;1.00
7028;DHT22;3555;53.248;10.336;2023-07-09T01:33:15;20.90;1.00
7028;DHT22;3555;53.248;10.336;2023-07-09T01:35:43;20.80;1.00
7028;DHT22;3555;53.248;10.336;2023-07-09T01:38:10;20.80;1.00
7028;DHT22;3555;53.248;10.336;2023-07-09T01:40:38;20.70;1.00
7028;DHT22;3555;53.248;10.336;2023-07-09T01:43:06;20.70;1.00
7028;DHT22;3555;53.248;10.336;2023-07-09T01:45:34;20.70;1.00
7028;DHT22;3555;53.248;10.336;2023-07-09T01:48:02;20.50;1.00
7028;DHT22;3555;53.248;10.336;2023-07-09T01:50:29;20.40;1.00
7028;DHT22;3555;53.248;10.336;2023-07-09T01:52:57;20.30;1.00
7028;DHT22;3555;53.248;10.336;2023-07-09T01:55:24;20.20;7.30
7028;DHT22;3555;53.248;10.336;2023-07-09T01:57:52;20.10;99.90
7028;DHT22;3555;53.248;10.336;2023-07-09T02:00:19;20.10;99.90
7028;DHT22;3555;53.248;10.336;2023-07-09T02:02:47;20.10;99.90
7028;DHT22;3555;53.248;10.336;2023-07-09T02:05:15;20.10;99.90
7028;DHT22;3555;53.248;10.336;2023-07-09T02:07:43;20.10;99.90
7028;DHT22;3555;53.248;10.336;2023-07-09T02:10:11;20.30;1.00
7028;DHT22;3555;53.248;10.336;2023-07-09T02:12:39;20.40;1.00
7028;DHT22;3555;53.248;10.336;2023-07-09T02:15:08;20.30;1.00
7028;DHT22;3555;53.248;10.336;2023-07-09T02:17:35;20.40;1.00
7028;DHT22;3555;53.248;10.336;2023-07-09T02:20:03;20.40;1.00
7028;DHT22;3555;53.248;10.336;2023-07-09T02:22:32;20.30;1.00
7028;DHT22;3555;53.248;10.336;2023-07-09T02:24:59;20.20;1.00
7028;DHT22;3555;53.248;10.336;2023-07-09T02:27:26;20.10;99.90
7028;DHT22;3555;53.248;10.336;2023-07-09T02:29:53;19.90;1.00
7028;DHT22;3555;53.248;10.336;2023-07-09T02:32:24;19.80;1.00
7028;DHT22;3555;53.248;10.336;2023-07-09T02:34:53;19.80;1.00
7028;DHT22;3555;53.248;10.336;2023-07-09T02:37:22;19.80;1.00
7028;DHT22;3555;53.248;10.336;2023-07-09T02:39:49;19.80;1.00
7028;DHT22;3555;53.248;10.336;2023-07-09T02:42:18;19.90;99.90
7028;DHT22;3555;53.248;10.336;2023-07-09T02:44:45;19.80;99.90
7028;DHT22;3555;53.248;10.336;2023-07-09T02:47:12;19.70;99.90
7028;DHT22;3555;53.248;10.336;2023-07-09T02:49:41;19.70;1.00
7028;DHT22;3555;53.248;10.336;2023-07-09T02:52:08;19.70;1.00
7028;DHT22;3555;53.248;10.336;2023-07-09T02:54:35;19.80;1.00
7028;DHT22;3555;53.248;10.336;2023-07-09T02:57:02;19.70;1.00
7028;DHT22;3555;53.248;10.336;2023-07-09T02:59:29;19.60;1.00
7028;DHT22;3555;53.248;10.336;2023-07-09T03:01:56;19.60;1.00
7028;DHT22;3555;53.248;10.336;2023-07-09T03:04:23;19.70;1.00
7028;DHT22;3555;53.248;10.336;2023-07-09T03:06:52;19.70;1.00
7028;DHT22;3555;53.248;10.336;2023-07-09T03:09:19;19.60;1.00
7028;DHT22;3555;53.248;10.336;2023-07-09T03:11:46;19.60;1.00
7028;DHT22;3555;53.248;10.336;2023-07-09T03:14:14;19.60;1.00
7028;DHT22;3555;53.248;10.336;2023-07-09T03:16:41;19.60;1.00
7028;DHT22;3555;53.248;10.336;2023-07-09T03:19:08;19.50;1.00
7028;DHT22;3555;53.248;10.336;2023-07-09T03:21:35;19.50;1.00
7028;DHT22;3555;53.248;10.336;2023-07-09T03:24:04;19.40;1.00
7028;DHT22;3555;53.248;10.336;2023-07-09T03:26:31;19.40;1.00
7028;DHT22;3555;53.248;10.336;2023-07-09T03:28:58;19.40;1.00
7028;DHT22;3555;53.248;10.336;2023-07-09T03:31:24;19.40;1.00
7028;DHT22;3555;53.248;10.336;2023-07-09T03:33:52;19.40;1.00
7028;DHT22;3555;53.248;10.336;2023-07-09T03:36:19;19.40;1.00
7028;DHT22;3555;53.248;10.336;2023-07-09T03:38:47;19.20;1.00
7028;DHT22;3555;53.248;10.336;2023-07-09T03:41:15;19.20;99.90
7028;DHT22;3555;53.248;10.336;2023-07-09T03:43:42;19.20;99.90
7028;DHT22;3555;53.248;10.336;2023-07-09T03:46:10;19.30;59.90
7028;DHT22;3555;53.248;10.336;2023-07-09T03:48:37;19.30;1.00
7028;DHT22;3555;53.248;10.336;2023-07-09T03:51:04;19.20;1.00
7028;DHT22;3555;53.248;10.336;2023-07-09T03:53:31;19.30;1.00
7028;DHT22;3555;53.248;10.336;2023-07-09T03:55:58;19.40;1.00
7028;DHT22;3555;53.248;10.336;2023-07-09T03:58:27;19.30;1.00
7028;DHT22;3555;53.248;10.336;2023-07-09T04:00:54;19.30;1.00
7028;DHT22;3555;53.248;10.336;2023-07-09T04:03:21;19.30;1.00
7028;DHT22;3555;53.248;10.336;2023-07-09T04:05:48;19.30;1.00
7028;DHT22;3555;53.248;10.336;2023-07-09T04:08:16;19.30;1.00
7028;DHT22;3555;53.248;10.336;2023-07-09T04:10:42;19.30;1.00
7028;DHT22;3555;53.248;10.336;2023-07-09T04:13:09;19.30;1.00
7028;DHT22;3555;53.248;10.336;2023-07-09T04:15:38;19.40;99.90
7028;DHT22;3555;53.248;10.336;2023-07-09T04:18:05;19.40;1.00
7028;DHT22;3555;53.248;10.336;2023-07-09T04:20:32;19.50;99.90
7028;DHT22;3555;53.248;10.336;2023-07-09T04:23:00;19.40;1.00
7028;DHT22;3555;53.248;10.336;2023-07-09T04:25:27;19.50;99.90
7028;DHT22;3555;53.248;10.336;2023-07-09T04:27:54;19.60;1.00
7028;DHT22;3555;53.248;10.336;2023-07-09T04:30:21;19.60;99.90
7028;DHT22;3555;53.248;10.336;2023-07-09T04:32:49;19.70;99.90
7028;DHT22;3555;53.248;10.336;2023-07-09T04:35:16;19.70;99.90
7028;DHT22;3555;53.248;10.336;2023-07-09T04:37:43;19.90;99.90
7028;DHT22;3555;53.248;10.336;2023-07-09T04:40:11;20.00;1.00
7028;DHT22;3555;53.248;10.336;2023-07-09T04:42:38;20.10;1.00
7028;DHT22;3555;53.248;10.336;2023-07-09T04:45:07;20.20;1.00
7028;DHT22;3555;53.248;10.336;2023-07-09T04:47:35;20.20;1.00
7028;DHT22;3555;53.248;10.336;2023-07-09T04:50:05;20.30;1.00
7028;DHT22;3555;53.248;10.336;2023-07-09T04:52:33;20.30;1.00
7028;DHT22;3555;53.248;10.336;2023-07-09T04:55:00;20.40;1.00
7028;DHT22;3555;53.248;10.336;2023-07-09T04:57:27;20.60;1.00
7028;DHT22;3555;53.248;10.336;2023-07-09T04:59:54;20.70;99.90
7028;DHT22;3555;53.248;10.336;2023-07-09T05:02:21;20.80;99.90
7028;DHT22;3555;53.248;10.336;2023-07-09T05:04:49;20.80;99.90
7028;DHT22;3555;53.248;10.336;2023-07-09T05:07:17;20.90;99.90
7028;DHT22;3555;53.248;10.336;2023-07-09T05:09:44;21.00;89.20
7028;DHT22;3555;53.248;10.336;2023-07-09T05:12:11;21.20;1.00
7028;DHT22;3555;53.248;10.336;2023-07-09T05:14:38;21.20;1.00
7028;DHT22;3555;53.248;10.336;2023-07-09T05:17:05;21.40;1.00
7028;DHT22;3555;53.248;10.336;2023-07-09T05:19:33;21.60;1.00
7028;DHT22;3555;53.248;10.336;2023-07-09T05:22:00;21.70;1.00
7028;DHT22;3555;53.248;10.336;2023-07-09T05:24:28;22.00;1.00
7028;DHT22;3555;53.248;10.336;2023-07-09T05:26:55;22.20;1.00
7028;DHT22;3555;53.248;10.336;2023-07-09T05:29:22;22.40;1.00
7028;DHT22;3555;53.248;10.336;2023-07-09T05:31:49;22.40;99.90
7028;DHT22;3555;53.248;10.336;2023-07-09T05:34:16;22.50;99.90
7028;DHT22;3555;53.248;10.336;2023-07-09T05:36:43;22.60;99.90
7028;DHT22;3555;53.248;10.336;2023-07-09T05:39:10;22.80;99.90
7028;DHT22;3555;53.248;10.336;2023-07-09T05:41:38;22.90;99.90
7028;DHT22;3555;53.248;10.336;2023-07-09T05:44:06;23.00;99.90
7028;DHT22;3555;53.248;10.336;2023-07-09T05:46:34;23.00;99.90
7028;DHT22;3555;53.248;10.336;2023-07-09T05:49:02;23.00;82.40
7028;DHT22;3555;53.248;10.336;2023-07-09T05:51:29;23.00;97.80
7028;DHT22;3555;53.248;10.336;2023-07-09T05:53:56;23.20;68.00
7028;DHT22;3555;53.248;10.336;2023-07-09T05:56:23;23.30;36.40
7028;DHT22;3555;53.248;10.336;2023-07-09T05:58:52;23.60;1.00
7028;DHT22;3555;53.248;10.336;2023-07-09T06:01:19;23.80;1.00
7028;DHT22;3555;53.248;10.336;2023-07-09T06:03:46;23.80;1.00
7028;DHT22;3555;53.248;10.336;2023-07-09T06:06:12;24.00;1.00
7028;DHT22;3555;53.248;10.336;2023-07-09T06:08:39;24.10;1.00
7028;DHT22;3555;53.248;10.336;2023-07-09T06:11:06;24.00;1.00
7028;DHT22;3555;53.248;10.336;2023-07-09T06:13:34;24.10;1.00
7028;DHT22;3555;53.248;10.336;2023-07-09T06:16:02;24.30;1.00
7028;DHT22;3555;53.248;10.336;2023-07-09T06:18:30;24.60;1.00
7028;DHT22;3555;53.248;10.336;2023-07-09T06:20:58;24.70;1.00
7028;DHT22;3555;53.248;10.336;2023-07-09T06:23:25;25.00;1.00
7028;DHT22;3555;53.248;10.336;2023-07-09T06:25:52;25.10;1.00
7028;DHT22;3555;53.248;10.336;2023-07-09T06:28:21;25.20;1.00
7028;DHT22;3555;53.248;10.336;2023-07-09T06:30:49;25.50;1.00
7028;DHT22;3555;53.248;10.336;2023-07-09T06:33:18;25.80;1.00
7028;DHT22;3555;53.248;10.336;2023-07-09T06:35:49;25.80;1.00
7028;DHT22;3555;53.248;10.336;2023-07-09T06:38:17;26.10;1.00
7028;DHT22;3555;53.248;10.336;2023-07-09T06:40:44;25.90;1.00
7028;DHT22;3555;53.248;10.336;2023-07-09T06:43:12;26.30;1.00
7028;DHT22;3555;53.248;10.336;2023-07-09T06:45:39;26.40;1.00
7028;DHT22;3555;53.248;10.336;2023-07-09T06:48:06;26.60;1.00
7028;DHT22;3555;53.248;10.336;2023-07-09T06:50:34;26.80;1.00
7028;DHT22;3555;53.248;10.336;2023-07-09T06:53:01;26.70;1.00
7028;DHT22;3555;53.248;10.336;2023-07-09T06:55:28;26.90;1.00
7028;DHT22;3555;53.248;10.336;2023-07-09T06:57:55;26.80;1.00
7028;DHT22;3555;53.248;10.336;2023-07-09T07:00:22;26.60;1.00
7028;DHT22;3555;53.248;10.336;2023-07-09T07:02:49;26.80;1.00
7028;DHT22;3555;53.248;10.336;2023-07-09T07:05:17;26.80;1.00
7028;DHT22;3555;53.248;10.336;2023-07-09T07:07:45;26.80;1.00
7028;DHT22;3555;53.248;10.336;2023-07-09T07:10:12;26.60;1.00
7028;DHT22;3555;53.248;10.336;2023-07-09T07:12:43;26.70;1.00
7028;DHT22;3555;53.248;10.336;2023-07-09T07:15:12;26.70;1.00
7028;DHT22;3555;53.248;10.336;2023-07-09T07:17:40;26.60;1.00
7028;DHT22;3555;53.248;10.336;2023-07-09T07:20:08;26.60;1.00
7028;DHT22;3555;53.248;10.336;2023-07-09T07:22:35;26.80;1.00
7028;DHT22;3555;53.248;10.336;2023-07-09T07:25:05;27.20;1.00
7028;DHT22;3555;53.248;10.336;2023-07-09T07:27:33;27.60;1.00
7028;DHT22;3555;53.248;10.336;2023-07-09T07:30:00;27.60;1.00
7028;DHT22;3555;53.248;10.336;2023-07-09T07:32:27;27.20;1.00
7028;DHT22;3555;53.248;10.336;2023-07-09T07:34:54;27.20;1.00
7028;DHT22;3555;53.248;10.336;2023-07-09T07:37:21;27.40;1.00
7028;DHT22;3555;53.248;10.336;2023-07-09T07:39:48;27.30;1.00
7028;DHT22;3555;53.248;10.336;2023-07-09T07:42:17;27.10;1.00
7028;DHT22;3555;53.248;10.336;2023-07-09T07:44:45;27.20;1.00
7028;DHT22;3555;53.248;10.336;2023-07-09T07:47:12;27.20;1.00
7028;DHT22;3555;53.248;10.336;2023-07-09T07:49:39;27.20;1.00
7028;DHT22;3555;53.248;10.336;2023-07-09T07:52:07;27.10;1.00
7028;DHT22;3555;53.248;10.336;2023-07-09T07:54:33;27.10;1.00
7028;DHT22;3555;53.248;10.336;2023-07-09T07:57:00;27.50;1.00
7028;DHT22;3555;53.248;10.336;2023-07-09T07:59:29;28.00;1.00
7028;DHT22;3555;53.248;10.336;2023-07-09T08:01:58;28.20;1.00
7028;DHT22;3555;53.248;10.336;2023-07-09T08:04:25;27.90;1.00
7028;DHT22;3555;53.248;10.336;2023-07-09T08:06:52;27.90;1.00
7028;DHT22;3555;53.248;10.336;2023-07-09T08:09:19;28.00;1.00
7028;DHT22;3555;53.248;10.336;2023-07-09T08:11:46;28.20;1.00
7028;DHT22;3555;53.248;10.336;2023-07-09T08:14:14;28.60;1.00
7028;DHT22;3555;53.248;10.336;2023-07-09T08:16:43;28.90;1.00
7028;DHT22;3555;53.248;10.336;2023-07-09T08:19:10;29.40;1.00
7028;DHT22;3555;53.248;10.336;2023-07-09T08:21:36;29.60;1.00
7028;DHT22;3555;53.248;10.336;2023-07-09T08:24:04;29.90;1.00
7028;DHT22;3555;53.248;10.336;2023-07-09T08:26:31;29.80;1.00
7028;DHT22;3555;53.248;10.336;2023-07-09T08:28:58;30.00;1.00
7028;DHT22;3555;53.248;10.336;2023-07-09T08:31:25;30.30;1.00
7028;DHT22;3555;53.248;10.336;2023-07-09T08:33:53;30.40;1.00
7028;DHT22;3555;53.248;10.336;2023-07-09T08:36:20;30.60;1.00
7028;DHT22;3555;53.248;10.336;2023-07-09T08:38:47;30.70;1.00
7028;DHT22;3555;53.248;10.336;2023-07-09T08:41:28;30.80;1.00
7028;DHT22;3555;53.248;10.336;2023-07-09T08:44:22;30.80;1.00
7028;DHT22;3555;53.248;10.336;2023-07-09T08:46:59;30.90;1.00
7028;DHT22;3555;53.248;10.336;2023-07-09T08:49:35;31.10;1.00
7028;DHT22;3555;53.248;10.336;2023-07-09T08:52:12;31.00;1.00
7028;DHT22;3555;53.248;10.336;2023-07-09T08:54:41;31.00;1.00
7028;DHT22;3555;53.248;10.336;2023-07-09T08:57:17;31.20;1.00
7028;DHT22;3555;53.248;10.336;2023-07-09T08:59:45;31.00;1.00
7028;DHT22;3555;53.248;10.336;2023-07-09T09:02:24;31.10;1.00
7028;DHT22;3555;53.248;10.336;2023-07-09T09:04:53;31.20;1.00
7028;DHT22;3555;53.248;10.336;2023-07-09T09:07:38;31.40;1.00
7028;DHT22;3555;53.248;10.336;2023-07-09T09:10:07;31.50;1.00
7028;DHT22;3555;53.248;10.336;2023-07-09T09:12:41;31.70;1.00
7028;DHT22;3555;53.248;10.336;2023-07-09T09:15:13;32.00;1.00
7028;DHT22;3555;53.248;10.336;2023-07-09T09:17:41;32.10;1.00
7028;DHT22;3555;53.248;10.336;2023-07-09T09:20:15;32.00;1.00
7028;DHT22;3555;53.248;10.336;2023-07-09T09:22:47;31.90;1.00
7028;DHT22;3555;53.248;10.336;2023-07-09T09:25:23;32.20;1.00
7028;DHT22;3555;53.248;10.336;2023-07-09T09:27:52;32.10;1.00
7028;DHT22;3555;53.248;10.336;2023-07-09T09:30:21;32.00;1.00
7028;DHT22;3555;53.248;10.336;2023-07-09T09:32:53;32.10;1.00
7028;DHT22;3555;53.248;10.336;2023-07-09T09:35:27;32.30;1.00
7028;DHT22;3555;53.248;10.336;2023-07-09T09:37:56;32.30;1.00
7028;DHT22;3555;53.248;10.336;2023-07-09T09:40:25;32.40;1.00
7028;DHT22;3555;53.248;10.336;2023-07-09T09:42:55;32.70;1.00
7028;DHT22;3555;53.248;10.336;2023-07-09T09:45:26;32.50;1.00
7028;DHT22;3555;53.248;10.336;2023-07-09T09:47:59;32.60;1.00
7028;DHT22;3555;53.248;10.336;2023-07-09T09:50:31;32.40;1.00
7028;DHT22;3555;53.248;10.336;2023-07-09T09:52:59;32.30;1.00
7028;DHT22;3555;53.248;10.336;2023-07-09T09:55:29;32.50;1.00
7028;DHT22;3555;53.248;10.336;2023-07-09T09:57:58;32.50;1.00
7028;DHT22;3555;53.248;10.336;2023-07-09T10:00:27;32.40;1.00
7028;DHT22;3555;53.248;10.336;2023-07-09T10:02:58;32.30;1.00
7028;DHT22;3555;53.248;10.336;2023-07-09T10:05:31;32.50;1.00
7028;DHT22;3555;53.248;10.336;2023-07-09T10:08:03;32.70;1.00
7028;DHT22;3555;53.248;10.336;2023-07-09T10:10:33;33.00;1.00
7028;DHT22;3555;53.248;10.336;2023-07-09T10:13:07;33.20;1.00
7028;DHT22;3555;53.248;10.336;2023-07-09T10:15:42;32.90;1.00
7028;DHT22;3555;53.248;10.336;2023-07-09T10:18:19;33.00;1.00
7028;DHT22;3555;53.248;10.336;2023-07-09T10:20:59;33.00;1.00
7028;DHT22;3555;53.248;10.336;2023-07-09T10:23:36;33.20;1.00
7028;DHT22;3555;53.248;10.336;2023-07-09T10:26:10;33.30;1.00
7028;DHT22;3555;53.248;10.336;2023-07-09T10:28:55;33.50;1.00
7028;DHT22;3555;53.248;10.336;2023-07-09T10:31:31;33.80;1.00
7028;DHT22;3555;53.248;10.336;2023-07-09T10:34:07;33.70;1.00
7028;DHT22;3555;53.248;10.336;2023-07-09T10:36:56;33.60;1.00
7028;DHT22;3555;53.248;10.336;2023-07-09T10:39:28;33.30;1.00
7028;DHT22;3555;53.248;10.336;2023-07-09T10:41:59;33.40;1.00
7028;DHT22;3555;53.248;10.336;2023-07-09T10:44:32;33.60;1.00
7028;DHT22;3555;53.248;10.336;2023-07-09T10:47:03;33.40;1.00
7028;DHT22;3555;53.248;10.336;2023-07-09T10:49:34;33.40;1.00
7028;DHT22;3555;53.248;10.336;2023-07-09T10:52:07;33.60;1.00
7028;DHT22;3555;53.248;10.336;2023-07-09T10:54:41;33.60;1.00
7028;DHT22;3555;53.248;10.336;2023-07-09T10:57:12;33.70;1.00
7028;DHT22;3555;53.248;10.336;2023-07-09T10:59:43;33.90;1.00
7028;DHT22;3555;53.248;10.336;2023-07-09T11:02:18;33.50;1.00
7028;DHT22;3555;53.248;10.336;2023-07-09T11:04:49;33.50;1.00
7028;DHT22;3555;53.248;10.336;2023-07-09T11:07:23;33.50;1.00
7028;DHT22;3555;53.248;10.336;2023-07-09T11:09:53;33.40;1.00
7028;DHT22;3555;53.248;10.336;2023-07-09T11:12:27;33.50;1.00
7028;DHT22;3555;53.248;10.336;2023-07-09T11:14:58;33.50;1.00
7028;DHT22;3555;53.248;10.336;2023-07-09T11:17:27;33.60;1.00
7028;DHT22;3555;53.248;10.336;2023-07-09T11:20:00;33.60;1.00
7028;DHT22;3555;53.248;10.336;2023-07-09T11:22:38;33.40;1.00
7028;DHT22;3555;53.248;10.336;2023-07-09T11:25:08;33.50;1.00
7028;DHT22;3555;53.248;10.336;2023-07-09T11:27:45;33.70;1.00
7028;DHT22;3555;53.248;10.336;2023-07-09T11:30:21;33.50;1.00
7028;DHT22;3555;53.248;10.336;2023-07-09T11:32:53;33.50;99.90
7028;DHT22;3555;53.248;10.336;2023-07-09T11:35:22;33.50;1.00
7028;DHT22;3555;53.248;10.336;2023-07-09T11:37:51;34.00;1.00
7028;DHT22;3555;53.248;10.336;2023-07-09T11:40:21;33.80;99.90
7028;DHT22;3555;53.248;10.336;2023-07-09T11:42:53;34.00;99.90
7028;DHT22;3555;53.248;10.336;2023-07-09T11:45:24;34.10;1.00
7028;DHT22;3555;53.248;10.336;2023-07-09T11:47:57;34.20;99.90
7028;DHT22;3555;53.248;10.336;2023-07-09T11:50:32;34.40;99.90
7028;DHT22;3555;53.248;10.336;2023-07-09T11:53:04;34.30;99.90
7028;DHT22;3555;53.248;10.336;2023-07-09T11:55:39;34.60;99.90
7028;DHT22;3555;53.248;10.336;2023-07-09T11:58:09;34.70;99.90
7028;DHT22;3555;53.248;10.336;2023-07-09T12:00:38;35.10;99.90
7028;DHT22;3555;53.248;10.336;2023-07-09T12:03:06;35.10;99.90
7028;DHT22;3555;53.248;10.336;2023-07-09T12:05:33;35.40;99.90
7028;DHT22;3555;53.248;10.336;2023-07-09T12:08:02;35.00;99.90
7028;DHT22;3555;53.248;10.336;2023-07-09T12:10:33;35.00;99.90
7028;DHT22;3555;53.248;10.336;2023-07-09T12:13:01;34.60;99.90
7028;DHT22;3555;53.248;10.336;2023-07-09T12:15:30;34.50;99.90
7028;DHT22;3555;53.248;10.336;2023-07-09T12:18:00;34.70;99.90
7028;DHT22;3555;53.248;10.336;2023-07-09T12:20:30;34.40;99.90
7028;DHT22;3555;53.248;10.336;2023-07-09T12:22:57;34.40;99.90
7028;DHT22;3555;53.248;10.336;2023-07-09T12:25:27;34.40;99.90
7028;DHT22;3555;53.248;10.336;2023-07-09T12:27:54;34.50;99.90
7028;DHT22;3555;53.248;10.336;2023-07-09T12:30:21;34.50;99.90
7028;DHT22;3555;53.248;10.336;2023-07-09T12:32:50;34.60;99.90
7028;DHT22;3555;53.248;10.336;2023-07-09T12:35:18;34.80;99.90
7028;DHT22;3555;53.248;10.336;2023-07-09T12:37:48;34.90;99.90
7028;DHT22;3555;53.248;10.336;2023-07-09T12:40:21;35.10;99.90
7028;DHT22;3555;53.248;10.336;2023-07-09T12:42:49;35.30;99.90
7028;DHT22;3555;53.248;10.336;2023-07-09T12:45:19;35.40;99.90
7028;DHT22;3555;53.248;10.336;2023-07-09T12:47:47;35.40;99.90
7028;DHT22;3555;53.248;10.336;2023-07-09T12:50:23;35.50;99.90
7028;DHT22;3555;53.248;10.336;2023-07-09T12:52:56;34.80;99.90
7028;DHT22;3555;53.248;10.336;2023-07-09T12:55:25;35.10;99.90
7028;DHT22;3555;53.248;10.336;2023-07-09T12:57:57;35.10;99.90
7028;DHT22;3555;53.248;10.336;2023-07-09T13:00:30;35.10;99.90
7028;DHT22;3555;53.248;10.336;2023-07-09T13:02:59;35.00;99.90
7028;DHT22;3555;53.248;10.336;2023-07-09T13:05:26;35.00;99.90
7028;DHT22;3555;53.248;10.336;2023-07-09T13:07:55;35.10;99.90
7028;DHT22;3555;53.248;10.336;2023-07-09T13:10:26;35.10;99.90
7028;DHT22;3555;53.248;10.336;2023-07-09T13:12:57;34.80;99.90
7028;DHT22;3555;53.248;10.336;2023-07-09T13:15:27;34.70;99.90
7028;DHT22;3555;53.248;10.336;2023-07-09T13:18:02;34.70;99.90
7028;DHT22;3555;53.248;10.336;2023-07-09T13:20:30;34.80;99.90
7028;DHT22;3555;53.248;10.336;2023-07-09T13:22:58;34.90;99.90
7028;DHT22;3555;53.248;10.336;2023-07-09T13:25:25;34.90;99.90
7028;DHT22;3555;53.248;10.336;2023-07-09T13:27:53;34.90;99.90
7028;DHT22;3555;53.248;10.336;2023-07-09T13:30:21;34.90;99.90
7028;DHT22;3555;53.248;10.336;2023-07-09T13:32:48;35.10;99.90
7028;DHT22;3555;53.248;10.336;2023-07-09T13:35:17;34.80;99.90
7028;DHT22;3555;53.248;10.336;2023-07-09T13:37:46;34.70;99.90
7028;DHT22;3555;53.248;10.336;2023-07-09T13:40:15;34.70;99.90
7028;DHT22;3555;53.248;10.336;2023-07-09T13:42:43;34.60;99.90
7028;DHT22;3555;53.248;10.336;2023-07-09T13:45:23;35.00;99.90
7028;DHT22;3555;53.248;10.336;2023-07-09T13:47:51;35.10;99.90
7028;DHT22;3555;53.248;10.336;2023-07-09T13:50:18;35.20;99.90
7028;DHT22;3555;53.248;10.336;2023-07-09T13:52:46;35.50;99.90
7028;DHT22;3555;53.248;10.336;2023-07-09T13:55:18;35.70;99.90
7028;DHT22;3555;53.248;10.336;2023-07-09T13:57:45;35.40;99.90
7028;DHT22;3555;53.248;10.336;2023-07-09T14:00:13;35.30;99.90
7028;DHT22;3555;53.248;10.336;2023-07-09T14:02:41;35.20;99.90
7028;DHT22;3555;53.248;10.336;2023-07-09T14:05:11;35.00;99.90
7028;DHT22;3555;53.248;10.336;2023-07-09T14:07:40;35.00;99.90
7028;DHT22;3555;53.248;10.336;2023-07-09T14:10:11;34.80;99.90
7028;DHT22;3555;53.248;10.336;2023-07-09T14:12:41;35.00;99.90
7028;DHT22;3555;53.248;10.336;2023-07-09T14:15:13;35.10;99.90
7028;DHT22;3555;53.248;10.336;2023-07-09T14:17:42;35.20;99.90
7028;DHT22;3555;53.248;10.336;2023-07-09T14:20:11;35.30;99.90
7028;DHT22;3555;53.248;10.336;2023-07-09T14:22:39;35.30;99.90
7028;DHT22;3555;53.248;10.336;2023-07-09T14:25:15;35.20;99.90
7028;DHT22;3555;53.248;10.336;2023-07-09T14:27:42;35.30;99.90
7028;DHT22;3555;53.248;10.336;2023-07-09T14:30:14;35.30;99.90
7028;DHT22;3555;53.248;10.336;2023-07-09T14:32:43;35.70;99.90
7028;DHT22;3555;53.248;10.336;2023-07-09T14:35:14;35.40;99.90
7028;DHT22;3555;53.248;10.336;2023-07-09T14:37:41;35.40;99.90
7028;DHT22;3555;53.248;10.336;2023-07-09T14:40:09;35.00;99.90
7028;DHT22;3555;53.248;10.336;2023-07-09T14:42:37;34.90;99.90
7028;DHT22;3555;53.248;10.336;2023-07-09T14:45:05;35.10;99.90
7028;DHT22;3555;53.248;10.336;2023-07-09T14:47:33;35.10;99.90
7028;DHT22;3555;53.248;10.336;2023-07-09T14:50:02;35.20;99.90
7028;DHT22;3555;53.248;10.336;2023-07-09T14:52:30;35.10;99.90
7028;DHT22;3555;53.248;10.336;2023-07-09T14:54:57;35.20;99.90
7028;DHT22;3555;53.248;10.336;2023-07-09T14:57:25;35.40;99.90
7028;DHT22;3555;53.248;10.336;2023-07-09T14:59:53;35.20;99.90
7028;DHT22;3555;53.248;10.336;2023-07-09T15:02:24;35.00;99.90
7028;DHT22;3555;53.248;10.336;2023-07-09T15:04:55;35.00;99.90
7028;DHT22;3555;53.248;10.336;2023-07-09T15:07:23;34.80;99.90
7028;DHT22;3555;53.248;10.336;2023-07-09T15:09:55;35.00;99.90
7028;DHT22;3555;53.248;10.336;2023-07-09T15:12:26;35.10;99.90
7028;DHT22;3555;53.248;10.336;2023-07-09T15:14:59;34.70;99.90
7028;DHT22;3555;53.248;10.336;2023-07-09T15:17:27;34.60;99.90
7028;DHT22;3555;53.248;10.336;2023-07-09T15:19:54;34.40;99.90
7028;DHT22;3555;53.248;10.336;2023-07-09T15:22:28;34.40;99.90
7028;DHT22;3555;53.248;10.336;2023-07-09T15:24:56;34.50;99.90
7028;DHT22;3555;53.248;10.336;2023-07-09T15:27:23;34.50;99.90
7028;DHT22;3555;53.248;10.336;2023-07-09T15:29:50;34.50;99.90
7028;DHT22;3555;53.248;10.336;2023-07-09T15:32:17;34.60;99.90
7028;DHT22;3555;53.248;10.336;2023-07-09T15:34:44;34.50;99.90
7028;DHT22;3555;53.248;10.336;2023-07-09T15:37:13;34.40;99.90
7028;DHT22;3555;53.248;10.336;2023-07-09T15:39:41;34.20;99.90
7028;DHT22;3555;53.248;10.336;2023-07-09T15:42:12;34.20;99.90
7028;DHT22;3555;53.248;10.336;2023-07-09T15:44:40;34.10;99.90
7028;DHT22;3555;53.248;10.336;2023-07-09T15:47:15;34.20;99.90
7028;DHT22;3555;53.248;10.336;2023-07-09T15:49:43;34.20;99.90
7028;DHT22;3555;53.248;10.336;2023-07-09T15:52:10;34.00;99.90
7028;DHT22;3555;53.248;10.336;2023-07-09T15:54:37;33.90;99.90
7028;DHT22;3555;53.248;10.336;2023-07-09T15:57:06;34.00;99.90
7028;DHT22;3555;53.248;10.336;2023-07-09T15:59:35;33.90;99.90
7028;DHT22;3555;53.248;10.336;2023-07-09T16:02:10;34.00;99.90
7028;DHT22;3555;53.248;10.336;2023-07-09T16:04:38;34.10;99.90
7028;DHT22;3555;53.248;10.336;2023-07-09T16:07:05;33.90;99.90